Wellington, CO (80549)

10:52 AM MDT on October 23, 2014 (GMT -0600)
Buffalo creek | Change Station
CLOSE
Current Station
Personal Weather Station
Location: Wellington, CO
Elevation: 5236 ft
Nearby Weather Stations

Elev 5236 ft 40.71 °N, 105.02 °W | Updated 14 minutes ago

Clear
Clear
58.5 °F
Feels Like 58.5 °F
N
2.7
Wind Variable Wind from SE

Today
High -- | Low -- °F
--% Chance of Precip.
Yesterday
High -- | Low -- °F
Precip. -- in
7:20 AM 6:07 PM
Waning Crescent, 0% visible
Pressure 30.17 in
Visibility 10.0 miles
Clouds Clear
Dew Point 37 °F
Humidity 45%
Rainfall 0.00 in
Snow Depth Not available.
UV 3 out of 12
Pollen 3.00 out of 12
PM2.5 Good
Flu Activity Sporadic
METAR KFNL 231635Z AUTO 18006KT 10SM CLR 14/04 A3017 RMK AO1

More Conditions Fewer Conditions

Pressure 30.17 in
Visibility 10.0 miles
Clouds Clear
Dew Point 37 °F
Humidity 45%
Rainfall 0.00 in
Snow Depth Not available.
UV 3 out of 12
Pollen 3.00 out of 12
PM2.5 Good
Flu Activity Sporadic
METAR KFNL 231635Z AUTO 18006KT 10SM CLR 14/04 A3017 RMK AO1

More Conditions Fewer Conditions

10-Day Weather Forecast

Almanac

Astronomy

Oct. 23, 2014 Rise Set
Actual Time 7:20 AM MDT 6:07 PM MDT
Civil Twilight 6:52 AM MDT 6:35 PM MDT
Nautical Twilight 6:20 AM MDT 7:07 PM MDT
Astronomical Twilight 5:48 AM MDT 7:39 PM MDT
Moon 7:02 AM MDT 6:11 PM MDT
Length of Visible Light 11h 43m
Length of Day
10h 47m
Tomorrow will be 2m 31s shorter.
Waning Crescent, 0% of the Moon is Illuminated
Today
Waning Crescent
Oct 23
New
Oct 30
First Quarter
Nov 6
Full
Nov 14
Last Quarter

Today's Extremes

State Highs State Lows

Community

WunderPhotos

Upload Photos

1,764,308 photos uploaded!

WunderBlogs® & News

Nearby

Air Quality

  Air Quality AQ Index Pollutant
Yesterday Good
OZONE
Current Good
PM2.5
Thursday Good
PM2.5
Thursday Good
OZONE

Snow Depth

Station Depth Elevation
Willow Park 0 in 10700 ft
Bear Lake 0 in 9500 ft
Joe Wright 0 in 10120 ft
Lake Irene 0 in 10700 ft
Copeland Lake 1 in 8600 ft

Earthquake Activity

City Distance Mag. Time & Date
No recent earthquake activity has been reported nearby.
Minimum magnitude displayed is 2.5.

Coastal Water Temperatures

Place Temperature
No Stations Reporting

Nearby Weather Stations